createdAt,value
2022-12-01T00:01:39.992Z,40.97
2022-12-01T00:07:04.600Z,37.70
2022-12-01T00:12:27.801Z,32.73
2022-12-01T00:17:51.028Z,46.37
2022-12-01T00:23:15.562Z,37.90
2022-12-01T00:28:39.125Z,38.57
2022-12-01T00:34:05.610Z,42.17
2022-12-01T00:39:32.887Z,41.53
2022-12-01T00:44:56.163Z,39.87
2022-12-01T00:50:20.112Z,32.07
2022-12-01T00:55:44.815Z,37.13
2022-12-01T01:01:08.044Z,41.93
2022-12-01T01:06:31.290Z,48.17
2022-12-01T01:11:56.350Z,37.87
2022-12-01T01:17:19.985Z,48.17
2022-12-01T01:22:43.198Z,37.97
2022-12-01T01:28:07.766Z,43.00
2022-12-01T01:33:31.260Z,48.50
2022-12-01T01:38:55.290Z,39.97
2022-12-01T01:44:52.487Z,48.90
2022-12-01T01:50:17.709Z,37.27
2022-12-01T01:55:40.970Z,39.37
2022-12-01T02:01:06.018Z,34.40
2022-12-01T02:06:29.274Z,34.33
2022-12-01T02:12:13.497Z,41.03
2022-12-01T02:17:43.382Z,30.87
2022-12-01T02:23:40.437Z,38.87
2022-12-01T02:29:25.230Z,26.43
2022-12-01T02:34:56.300Z,28.27
2022-12-01T02:40:21.767Z,33.97
2022-12-01T02:45:47.653Z,29.60
2022-12-01T02:51:15.084Z,40.50
2022-12-01T02:56:38.350Z,38.77
2022-12-01T03:02:06.312Z,32.70
2022-12-01T03:07:44.766Z,31.27
2022-12-01T03:13:15.644Z,31.37
2022-12-01T03:18:41.009Z,32.67
2022-12-01T03:24:09.304Z,37.30
2022-12-01T03:29:36.457Z,33.60
2022-12-01T03:35:04.522Z,33.47
2022-12-01T03:40:31.220Z,32.40
2022-12-01T03:45:57.267Z,36.17
2022-12-01T03:51:24.506Z,27.83
2022-12-01T03:56:53.843Z,32.03
2022-12-01T04:02:17.445Z,30.03
2022-12-01T04:07:41.042Z,27.23
2022-12-01T04:13:05.690Z,29.00
2022-12-01T04:18:28.935Z,26.20
2022-12-01T04:24:04.054Z,33.73
2022-12-01T04:29:28.592Z,32.10
2022-12-01T04:34:51.946Z,35.10
2022-12-01T04:40:15.414Z,26.10
2022-12-01T04:45:40.785Z,21.97
2022-12-01T04:51:04.401Z,23.93
2022-12-01T04:56:27.558Z,26.10
2022-12-01T05:01:52.259Z,23.50
2022-12-01T05:07:15.463Z,22.23
2022-12-01T05:12:38.677Z,22.40
2022-12-01T05:18:03.350Z,35.63
2022-12-01T05:23:26.594Z,30.20
2022-12-01T05:28:49.802Z,32.77
2022-12-01T05:34:14.508Z,31.30
2022-12-01T05:39:37.661Z,32.23
2022-12-01T05:45:01.027Z,35.47
2022-12-01T05:50:26.494Z,35.80
2022-12-01T05:55:53.652Z,30.50
2022-12-01T06:01:16.960Z,32.10
2022-12-01T06:06:41.679Z,37.60
2022-12-01T06:12:05.041Z,41.60
2022-12-01T06:17:28.250Z,37.03
2022-12-01T06:22:52.873Z,27.37
2022-12-01T06:28:16.392Z,35.93
2022-12-01T06:33:39.532Z,38.47
2022-12-01T06:39:08.424Z,36.53
2022-12-01T06:44:31.702Z,43.80
2022-12-01T06:49:54.968Z,43.23
2022-12-01T06:55:19.641Z,47.53
2022-12-01T07:00:45.380Z,44.53
2022-12-01T07:06:12.201Z,41.20
2022-12-01T07:11:37.043Z,48.43
2022-12-01T07:17:00.787Z,43.10
2022-12-01T07:22:28.098Z,46.23
2022-12-01T07:27:55.700Z,44.07
2022-12-01T07:33:18.943Z,36.60
2022-12-01T07:38:42.696Z,44.23
2022-12-01T07:44:07.370Z,48.50
2022-12-01T07:49:30.626Z,40.10
2022-12-01T07:54:53.892Z,40.30
2022-12-01T08:00:19.192Z,40.23
2022-12-01T08:05:42.365Z,43.27
2022-12-01T08:11:07.828Z,42.30
2022-12-01T08:16:32.435Z,46.00
2022-12-01T08:21:55.622Z,39.73
2022-12-01T08:27:18.867Z,40.60
2022-12-01T08:32:43.421Z,51.43
2022-12-01T08:38:06.646Z,42.73
2022-12-01T08:43:56.125Z,53.77
2022-12-01T08:49:14.763Z,41.90
2022-12-01T08:54:37.985Z,49.40
2022-12-01T09:00:01.264Z,46.90
2022-12-01T09:05:25.845Z,54.43
2022-12-01T09:10:52.353Z,55.17
2022-12-01T09:16:17.706Z,50.47
2022-12-01T09:21:43.620Z,51.03
2022-12-01T09:27:07.412Z,50.27
2022-12-01T09:32:30.589Z,47.27
2022-12-01T09:37:55.163Z,59.60
2022-12-01T09:43:21.535Z,52.77
2022-12-01T09:48:47.173Z,55.17
2022-12-01T09:54:14.306Z,56.27
2022-12-01T09:59:41.757Z,56.00
2022-12-01T10:05:08.006Z,54.23
2022-12-01T10:10:35.886Z,58.87
2022-12-01T10:16:05.821Z,54.67
2022-12-01T10:21:42.190Z,53.27
2022-12-01T10:27:17.256Z,50.67
2022-12-01T10:32:47.385Z,54.57
2022-12-01T10:38:14.853Z,52.60
2022-12-01T10:43:42.044Z,36.70
2022-12-01T10:49:09.742Z,57.07
2022-12-01T10:54:36.430Z,40.87
2022-12-01T11:00:03.532Z,45.00
2022-12-01T11:05:28.148Z,50.17
2022-12-01T11:10:52.253Z,47.43
2022-12-01T11:16:35.893Z,35.40
2022-12-01T11:22:01.029Z,31.50
2022-12-01T11:27:26.800Z,32.27
2022-12-01T11:32:54.737Z,34.07
2022-12-01T11:38:30.388Z,35.47
2022-12-01T11:44:01.607Z,38.37
2022-12-01T11:49:30.512Z,29.60
2022-12-01T11:54:58.204Z,24.07
2022-12-01T12:00:23.469Z,27.07
2022-12-01T12:06:38.913Z,27.97
2022-12-01T12:11:58.848Z,26.63
2022-12-01T12:17:30.460Z,25.17
2022-12-01T12:23:07.022Z,32.20
2022-12-01T12:28:41.069Z,30.87
2022-12-01T12:34:15.819Z,25.67
2022-12-01T12:40:15.549Z,26.00
2022-12-01T12:45:51.994Z,27.63
2022-12-01T12:51:19.371Z,30.47
2022-12-01T12:56:46.462Z,23.97
2022-12-01T13:02:14.764Z,28.17
2022-12-01T13:07:41.665Z,29.23
2022-12-01T13:13:14.864Z,24.60
2022-12-01T13:18:42.328Z,21.17
2022-12-01T13:24:06.487Z,21.97
2022-12-01T13:29:38.393Z,18.77
2022-12-01T13:35:08.789Z,19.57
2022-12-01T13:40:32.691Z,29.93
2022-12-01T13:46:03.392Z,21.43
2022-12-01T13:51:27.374Z,13.97
2022-12-01T13:57:02.681Z,18.23
2022-12-01T14:02:29.318Z,15.83
2022-12-01T14:07:53.072Z,11.40
2022-12-01T14:13:20.128Z,18.17
2022-12-01T14:18:51.367Z,19.83
2022-12-01T14:24:23.864Z,18.03
2022-12-01T14:29:47.069Z,18.13
2022-12-01T14:35:15.038Z,21.77
2022-12-01T14:40:38.586Z,12.60
2022-12-01T14:46:06.094Z,24.90
2022-12-01T14:51:33.012Z,20.50
2022-12-01T14:57:01.345Z,18.47
2022-12-01T15:02:29.107Z,18.70
2022-12-01T15:08:06.789Z,17.47
2022-12-01T15:13:46.556Z,15.40
2022-12-01T15:19:23.985Z,16.17
2022-12-01T15:24:49.021Z,16.33
2022-12-01T15:30:14.766Z,18.67
2022-12-01T15:35:38.008Z,22.07
2022-12-01T15:41:28.574Z,18.67
2022-12-01T15:46:46.972Z,16.80
2022-12-01T15:52:11.739Z,12.83
2022-12-01T15:57:36.417Z,16.67
2022-12-01T16:03:02.103Z,19.00
2022-12-01T16:08:27.286Z,24.60
2022-12-01T16:14:00.162Z,20.53
2022-12-01T16:19:29.327Z,20.27
2022-12-01T16:24:54.367Z,14.77
2022-12-01T16:30:23.471Z,14.77
2022-12-01T16:35:46.955Z,20.43
2022-12-01T16:41:17.490Z,20.07
2022-12-01T16:46:42.512Z,19.73
2022-12-01T16:52:22.016Z,25.20
2022-12-01T16:57:50.042Z,20.07
2022-12-01T17:03:17.555Z,21.87
2022-12-01T17:08:42.422Z,21.03
2022-12-01T17:14:05.556Z,20.97
2022-12-01T17:19:30.093Z,18.83
2022-12-01T17:24:54.700Z,15.50
2022-12-01T17:30:18.151Z,16.43
2022-12-01T17:35:42.695Z,23.13
2022-12-01T17:41:07.510Z,23.43
2022-12-01T17:46:30.797Z,21.83
2022-12-01T17:51:55.352Z,17.57
2022-12-01T17:57:18.518Z,25.27
2022-12-01T18:02:41.701Z,24.37
2022-12-01T18:08:06.758Z,20.30
2022-12-01T18:13:30.033Z,14.67
2022-12-01T18:18:53.902Z,26.47
2022-12-01T18:24:18.385Z,19.10
2022-12-01T18:29:41.773Z,20.13
2022-12-01T18:35:05.693Z,24.80
2022-12-01T18:40:30.100Z,13.80
2022-12-01T18:45:53.228Z,23.40
2022-12-01T18:51:16.622Z,17.13
2022-12-01T18:56:41.080Z,16.37
2022-12-01T19:02:04.576Z,14.43
2022-12-01T19:07:29.904Z,9.60
2022-12-01T19:12:55.670Z,7.53
2022-12-01T19:18:18.783Z,12.87
2022-12-01T19:23:42.068Z,9.07
2022-12-01T19:29:06.718Z,11.13
2022-12-01T19:34:29.824Z,10.17
2022-12-01T19:39:53.159Z,11.43
2022-12-01T19:45:17.840Z,12.70
2022-12-01T19:50:40.910Z,10.23
2022-12-01T19:56:05.536Z,13.50
2022-12-01T20:01:30.156Z,15.70
2022-12-01T20:06:53.265Z,28.33
2022-12-01T20:12:16.586Z,35.10
2022-12-01T20:17:41.263Z,25.63
2022-12-01T20:23:04.363Z,30.10
2022-12-01T20:28:27.812Z,36.70
2022-12-01T20:34:16.111Z,36.03
2022-12-01T20:39:41.388Z,35.07
2022-12-01T20:45:05.650Z,35.67
2022-12-01T20:50:30.172Z,28.10
2022-12-01T20:55:53.364Z,31.27
2022-12-01T21:01:17.900Z,33.63
2022-12-01T21:06:42.389Z,41.77
2022-12-01T21:12:29.857Z,34.47
2022-12-01T21:17:56.777Z,47.43
2022-12-01T21:23:21.682Z,52.53
2022-12-01T21:28:45.010Z,34.33
2022-12-01T21:34:10.518Z,42.77
2022-12-01T21:39:35.591Z,44.60
2022-12-01T21:44:58.723Z,47.53
2022-12-01T21:50:23.931Z,58.63
2022-12-01T21:55:49.291Z,53.73
2022-12-01T22:01:17.048Z,47.53
2022-12-01T22:06:42.102Z,48.07
2022-12-01T22:12:17.696Z,50.50
2022-12-01T22:17:40.848Z,49.50
2022-12-01T22:23:10.037Z,58.27
2022-12-01T22:28:34.527Z,46.27
2022-12-01T22:34:03.215Z,51.37
2022-12-01T22:39:30.959Z,64.03
2022-12-01T22:44:55.427Z,49.47
2022-12-01T22:50:25.370Z,53.47
2022-12-01T22:55:48.546Z,49.57
2022-12-01T23:01:22.858Z,55.13
2022-12-01T23:06:55.060Z,46.43
2022-12-01T23:12:26.677Z,60.57
2022-12-01T23:17:53.388Z,56.23
2022-12-01T23:23:19.770Z,59.27
2022-12-01T23:28:42.932Z,45.37
2022-12-01T23:34:13.729Z,51.30
2022-12-01T23:39:37.027Z,49.93
2022-12-01T23:45:00.211Z,54.57
2022-12-01T23:50:27.182Z,53.33
2022-12-01T23:55:51.372Z,41.93
